createdAt,value
2022-09-20T00:00:19.967Z,999.17
2022-09-20T00:01:20.057Z,999.18
2022-09-20T00:02:19.848Z,999.13
2022-09-20T00:03:19.780Z,999.10
2022-09-20T00:04:19.713Z,999.23
2022-09-20T00:05:19.717Z,999.24
2022-09-20T00:06:19.617Z,999.18
2022-09-20T00:07:19.532Z,999.18
2022-09-20T00:08:19.464Z,999.17
2022-09-20T00:09:19.428Z,999.16
2022-09-20T00:10:19.317Z,999.18
2022-09-20T00:11:20.039Z,999.14
2022-09-20T00:12:19.192Z,999.21
2022-09-20T00:13:19.126Z,999.15
2022-09-20T00:14:19.066Z,999.15
2022-09-20T00:15:19.005Z,999.14
2022-09-20T00:16:18.974Z,999.17
2022-09-20T00:17:18.873Z,999.15
2022-09-20T00:18:18.817Z,999.14
2022-09-20T00:19:18.733Z,999.13
2022-09-20T00:20:18.680Z,999.15
2022-09-20T00:21:18.617Z,999.15
2022-09-20T00:22:18.532Z,999.12
2022-09-20T00:23:19.264Z,999.09
2022-09-20T00:24:18.402Z,999.12
2022-09-20T00:25:18.335Z,999.11
2022-09-20T00:26:18.274Z,999.17
2022-09-20T00:27:18.223Z,999.10
2022-09-20T00:28:18.157Z,999.11
2022-09-20T00:29:18.085Z,999.10
2022-09-20T00:30:18.027Z,999.07
2022-09-20T00:31:18.052Z,999.12
2022-09-20T00:32:17.877Z,999.10
2022-09-20T00:33:17.830Z,999.09
2022-09-20T00:34:17.746Z,999.12
2022-09-20T00:35:18.487Z,999.10
2022-09-20T00:36:17.629Z,999.06
2022-09-20T00:37:17.563Z,999.07
2022-09-20T00:38:17.502Z,999.06
2022-09-20T00:39:17.426Z,999.07
2022-09-20T00:40:17.438Z,999.06
2022-09-20T00:41:17.312Z,999.07
2022-09-20T00:42:17.235Z,999.05
2022-09-20T00:43:17.177Z,999.09
2022-09-20T00:44:17.113Z,999.07
2022-09-20T00:45:17.052Z,999.10
2022-09-20T00:46:17.024Z,999.06
2022-09-20T00:47:16.931Z,999.08
2022-09-20T00:48:16.838Z,999.09
2022-09-20T00:49:16.783Z,999.09
2022-09-20T00:50:16.700Z,999.10
2022-09-20T00:51:16.656Z,999.15
2022-09-20T00:52:16.588Z,999.12
2022-09-20T00:53:17.282Z,999.17
2022-09-20T00:54:20.139Z,999.16
2022-09-20T00:55:16.388Z,999.12
2022-09-20T00:56:16.322Z,999.16
2022-09-20T00:57:16.247Z,999.09
2022-09-20T00:58:16.182Z,999.22
2022-09-20T00:59:16.918Z,999.15
2022-09-20T01:00:16.049Z,999.15
2022-09-20T01:01:16.051Z,999.16
2022-09-20T01:02:15.988Z,999.16
2022-09-20T01:03:15.851Z,999.10
2022-09-20T01:04:15.788Z,999.15
2022-09-20T01:05:16.770Z,999.19
2022-09-20T01:06:15.684Z,999.18
2022-09-20T01:07:15.609Z,999.16
2022-09-20T01:08:15.539Z,999.19
2022-09-20T01:09:15.465Z,999.18
2022-09-20T01:10:15.401Z,999.18
2022-09-20T01:11:16.870Z,999.14
2022-09-20T01:12:15.281Z,999.13
2022-09-20T01:13:15.239Z,999.11
2022-09-20T01:14:15.132Z,999.13
2022-09-20T01:15:15.076Z,999.14
2022-09-20T01:16:15.035Z,999.18
2022-09-20T01:17:15.734Z,999.18
2022-09-20T01:18:14.876Z,999.23
2022-09-20T01:19:14.806Z,999.17
2022-09-20T01:20:14.721Z,999.21
2022-09-20T01:21:14.674Z,999.19
2022-09-20T01:22:14.608Z,999.18
2022-09-20T01:23:14.571Z,999.15
2022-09-20T01:24:14.493Z,999.14
2022-09-20T01:25:14.421Z,999.13
2022-09-20T01:26:14.361Z,999.14
2022-09-20T01:27:14.293Z,999.15
2022-09-20T01:28:14.230Z,999.17
2022-09-20T01:29:14.181Z,999.17
2022-09-20T01:30:14.090Z,999.15
2022-09-20T01:31:14.095Z,999.14
2022-09-20T01:32:13.968Z,999.15
2022-09-20T01:33:13.908Z,999.13
2022-09-20T01:34:13.824Z,999.12
2022-09-20T01:35:14.986Z,999.15
2022-09-20T01:36:13.708Z,999.13
2022-09-20T01:37:13.632Z,999.08
2022-09-20T01:38:13.580Z,999.07
2022-09-20T01:39:13.515Z,999.08
2022-09-20T01:40:13.518Z,999.09
2022-09-20T01:41:14.160Z,999.09
2022-09-20T01:42:13.305Z,999.11
2022-09-20T01:43:13.240Z,999.11
2022-09-20T01:44:13.187Z,999.11
2022-09-20T01:45:13.127Z,999.12
2022-09-20T01:46:13.086Z,999.13
2022-09-20T01:47:12.993Z,999.10
2022-09-20T01:48:12.922Z,999.12
2022-09-20T01:49:12.860Z,999.15
2022-09-20T01:50:12.783Z,999.15
2022-09-20T01:51:12.732Z,999.15
2022-09-20T01:52:12.663Z,999.17
2022-09-20T01:53:12.606Z,999.16
2022-09-20T01:54:12.519Z,999.20
2022-09-20T01:55:12.454Z,999.18
2022-09-20T01:56:12.415Z,999.22
2022-09-20T01:57:12.337Z,999.21
2022-09-20T01:58:12.258Z,999.24
2022-09-20T01:59:23.666Z,999.22
2022-09-20T02:00:12.135Z,999.26
2022-09-20T02:01:12.143Z,999.32
2022-09-20T02:02:12.054Z,999.24
2022-09-20T02:03:11.927Z,999.21
2022-09-20T02:04:11.878Z,999.19
2022-09-20T02:05:11.831Z,999.21
2022-09-20T02:06:11.748Z,999.20
2022-09-20T02:07:11.681Z,999.24
2022-09-20T02:08:11.619Z,999.22
2022-09-20T02:09:11.536Z,999.21
2022-09-20T02:10:11.476Z,999.19
2022-09-20T02:11:13.306Z,999.17
2022-09-20T02:12:11.372Z,999.20
2022-09-20T02:13:11.291Z,999.20
2022-09-20T02:14:11.224Z,999.19
2022-09-20T02:15:11.183Z,999.16
2022-09-20T02:16:11.141Z,999.17
2022-09-20T02:17:11.811Z,999.18
2022-09-20T02:18:10.974Z,999.20
2022-09-20T02:19:10.900Z,999.18
2022-09-20T02:20:10.821Z,999.16
2022-09-20T02:21:10.794Z,999.21
2022-09-20T02:22:10.688Z,999.18
2022-09-20T02:23:10.715Z,999.15
2022-09-20T02:24:10.555Z,999.12
2022-09-20T02:25:10.510Z,999.12
2022-09-20T02:26:10.461Z,999.11
2022-09-20T02:27:10.377Z,999.11
2022-09-20T02:28:10.311Z,999.19
2022-09-20T02:29:11.437Z,999.18
2022-09-20T02:30:10.177Z,999.16
2022-09-20T02:31:10.203Z,999.14
2022-09-20T02:32:10.044Z,999.15
2022-09-20T02:33:09.988Z,999.16
2022-09-20T02:34:09.927Z,999.17
2022-09-20T02:35:09.849Z,999.18
2022-09-20T02:36:09.786Z,999.20
2022-09-20T02:37:09.705Z,999.22
2022-09-20T02:38:09.655Z,999.18
2022-09-20T02:39:09.591Z,999.14
2022-09-20T02:40:09.590Z,999.18
2022-09-20T02:41:10.253Z,999.19
2022-09-20T02:42:09.398Z,999.23
2022-09-20T02:43:09.333Z,999.22
2022-09-20T02:44:09.248Z,999.19
2022-09-20T02:45:09.188Z,999.17
2022-09-20T02:46:09.197Z,999.22
2022-09-20T02:47:09.102Z,999.19
2022-09-20T02:48:09.004Z,999.18
2022-09-20T02:49:08.922Z,999.20
2022-09-20T02:50:08.857Z,999.20
2022-09-20T02:51:08.792Z,999.23
2022-09-20T02:52:08.741Z,999.19
2022-09-20T02:53:08.706Z,999.20
2022-09-20T02:54:08.612Z,999.20
2022-09-20T02:55:08.538Z,999.23
2022-09-20T02:56:08.468Z,999.19
2022-09-20T02:57:08.414Z,999.21
2022-09-20T02:58:08.349Z,999.18
2022-09-20T02:59:09.827Z,999.19
2022-09-20T03:00:08.220Z,999.19
2022-09-20T03:01:08.209Z,999.17
2022-09-20T03:02:08.109Z,999.19
2022-09-20T03:03:08.009Z,999.17
2022-09-20T03:04:07.938Z,999.18
2022-09-20T03:05:09.100Z,999.20
2022-09-20T03:06:07.813Z,999.20
2022-09-20T03:07:07.755Z,999.21
2022-09-20T03:08:07.681Z,999.21
2022-09-20T03:09:07.612Z,999.21
2022-09-20T03:10:07.557Z,999.16
2022-09-20T03:11:07.502Z,999.20
2022-09-20T03:12:07.433Z,999.23
2022-09-20T03:13:07.367Z,999.22
2022-09-20T03:14:07.379Z,999.21
2022-09-20T03:15:07.237Z,999.25
2022-09-20T03:16:07.236Z,999.30
2022-09-20T03:17:09.229Z,999.27
2022-09-20T03:18:07.041Z,999.28
2022-09-20T03:19:06.982Z,999.25
2022-09-20T03:20:06.893Z,999.26
2022-09-20T03:21:06.831Z,999.25
2022-09-20T03:22:06.766Z,999.22
2022-09-20T03:23:08.261Z,999.27
2022-09-20T03:24:06.630Z,999.29
2022-09-20T03:25:06.591Z,999.33
2022-09-20T03:26:06.533Z,999.30
2022-09-20T03:27:06.449Z,999.33
2022-09-20T03:28:06.369Z,999.34
2022-09-20T03:29:06.468Z,999.36
2022-09-20T03:30:06.256Z,999.36
2022-09-20T03:31:06.188Z,999.44
2022-09-20T03:32:06.199Z,999.41
2022-09-20T03:33:06.168Z,999.39
2022-09-20T03:34:06.088Z,999.43
2022-09-20T03:35:05.934Z,999.40
2022-09-20T03:36:05.849Z,999.41
2022-09-20T03:37:05.793Z,999.42
2022-09-20T03:38:05.722Z,999.40
2022-09-20T03:39:05.648Z,999.38
2022-09-20T03:40:05.643Z,999.34
2022-09-20T03:41:05.553Z,999.36
2022-09-20T03:42:05.472Z,999.35
2022-09-20T03:43:05.406Z,999.31
2022-09-20T03:44:05.494Z,999.36
2022-09-20T03:45:05.310Z,999.41
2022-09-20T03:46:05.249Z,999.37
2022-09-20T03:47:06.665Z,999.37
2022-09-20T03:48:05.085Z,999.40
2022-09-20T03:49:05.000Z,999.37
2022-09-20T03:50:04.929Z,999.38
2022-09-20T03:51:04.919Z,999.37
2022-09-20T03:52:04.803Z,999.37
2022-09-20T03:53:05.507Z,999.35
2022-09-20T03:54:04.683Z,999.33
2022-09-20T03:55:04.602Z,999.39
2022-09-20T03:56:04.564Z,999.36
2022-09-20T03:57:04.478Z,999.38
2022-09-20T03:58:08.596Z,999.38
2022-09-20T03:59:05.221Z,999.37
2022-09-20T04:00:04.289Z,999.34
2022-09-20T04:01:04.304Z,999.37
2022-09-20T04:02:04.320Z,999.43
2022-09-20T04:03:04.036Z,999.42
2022-09-20T04:04:04.025Z,999.42
2022-09-20T04:05:04.747Z,999.44
2022-09-20T04:06:03.899Z,999.43
2022-09-20T04:07:03.820Z,999.50
2022-09-20T04:08:03.785Z,999.48
2022-09-20T04:09:03.695Z,999.46
2022-09-20T04:10:03.642Z,999.47
2022-09-20T04:11:04.379Z,999.45
2022-09-20T04:12:03.494Z,999.51
2022-09-20T04:13:03.434Z,999.45
2022-09-20T04:14:05.907Z,999.50
2022-09-20T04:15:03.315Z,999.48
2022-09-20T04:16:03.232Z,999.47
2022-09-20T04:17:03.280Z,999.43
2022-09-20T04:18:03.112Z,999.49
2022-09-20T04:19:03.032Z,999.47
2022-09-20T04:20:02.949Z,999.44
2022-09-20T04:21:02.846Z,999.44
2022-09-20T04:22:02.803Z,999.46
2022-09-20T04:23:03.058Z,999.44
2022-09-20T04:24:02.697Z,999.40
2022-09-20T04:25:02.591Z,999.42
2022-09-20T04:26:02.611Z,999.42
2022-09-20T04:27:02.532Z,999.44
2022-09-20T04:28:02.462Z,999.40
2022-09-20T04:29:03.910Z,999.41
2022-09-20T04:30:02.327Z,999.37
2022-09-20T04:31:02.250Z,999.36
2022-09-20T04:32:02.234Z,999.38
2022-09-20T04:33:02.136Z,999.34
2022-09-20T04:34:02.049Z,999.38
2022-09-20T04:35:02.810Z,999.37
2022-09-20T04:36:01.864Z,999.38
2022-09-20T04:37:01.814Z,999.40
2022-09-20T04:38:01.760Z,999.39
2022-09-20T04:39:01.667Z,999.40
2022-09-20T04:40:01.683Z,999.44
2022-09-20T04:41:01.571Z,999.44
2022-09-20T04:42:01.489Z,999.48
2022-09-20T04:43:01.423Z,999.43
2022-09-20T04:44:01.398Z,999.47
2022-09-20T04:45:01.292Z,999.45
2022-09-20T04:46:01.353Z,999.42
2022-09-20T04:47:02.404Z,999.46
2022-09-20T04:48:01.091Z,999.45
2022-09-20T04:49:01.013Z,999.46
2022-09-20T04:50:00.950Z,999.45
2022-09-20T04:51:00.893Z,999.44
2022-09-20T04:52:00.860Z,999.46
2022-09-20T04:53:00.776Z,999.44
2022-09-20T04:54:00.708Z,999.52
2022-09-20T04:55:00.626Z,999.51
2022-09-20T04:56:00.571Z,999.49
2022-09-20T04:57:00.494Z,999.53
2022-09-20T04:58:00.425Z,999.55
2022-09-20T04:59:00.391Z,999.60
2022-09-20T05:00:00.298Z,999.64
2022-09-20T05:01:00.274Z,999.63
2022-09-20T05:02:00.272Z,999.64
2022-09-20T05:03:00.096Z,999.62
2022-09-20T05:04:00.055Z,999.65
2022-09-20T05:05:01.171Z,999.65
2022-09-20T05:05:59.912Z,999.65
2022-09-20T05:06:59.876Z,999.65
2022-09-20T05:07:59.787Z,999.68
2022-09-20T05:08:59.933Z,999.72
2022-09-20T05:09:59.661Z,999.67
2022-09-20T05:10:59.611Z,999.68
2022-09-20T05:11:59.507Z,999.69
2022-09-20T05:12:59.455Z,999.63
2022-09-20T05:13:59.397Z,999.67
2022-09-20T05:14:59.324Z,999.68
2022-09-20T05:15:59.284Z,999.70
2022-09-20T05:17:00.075Z,999.72
2022-09-20T05:17:59.118Z,999.73
2022-09-20T05:18:59.083Z,999.75
2022-09-20T05:19:59.022Z,999.76
2022-09-20T05:20:58.961Z,999.77
2022-09-20T05:21:58.860Z,999.77
2022-09-20T05:22:58.792Z,999.77
2022-09-20T05:23:58.739Z,999.86
2022-09-20T05:24:58.669Z,999.83
2022-09-20T05:25:58.639Z,999.84
2022-09-20T05:26:58.538Z,999.81
2022-09-20T05:27:58.467Z,999.84
2022-09-20T05:28:58.675Z,999.86
2022-09-20T05:29:58.986Z,999.83
2022-09-20T05:30:58.281Z,999.88
2022-09-20T05:31:59.156Z,999.85
2022-09-20T05:32:58.149Z,999.89
2022-09-20T05:33:58.079Z,999.91
2022-09-20T05:34:58.038Z,999.93
2022-09-20T05:35:58.526Z,999.99
2022-09-20T05:36:57.875Z,999.98
2022-09-20T05:37:57.815Z,1000.03
2022-09-20T05:38:59.051Z,1000.00
2022-09-20T05:39:57.753Z,1000.00
2022-09-20T05:40:58.408Z,1000.05
2022-09-20T05:41:57.560Z,999.98
2022-09-20T05:42:57.484Z,1000.02
2022-09-20T05:43:57.418Z,1000.03
2022-09-20T05:44:57.369Z,1000.03
2022-09-20T05:45:57.307Z,1000.05
2022-09-20T05:46:58.278Z,1000.09
2022-09-20T05:47:57.178Z,1000.08
2022-09-20T05:48:57.122Z,1000.08
2022-09-20T05:49:57.039Z,1000.07
2022-09-20T05:50:57.835Z,1000.10
2022-09-20T05:51:56.916Z,1000.08
2022-09-20T05:52:59.122Z,1000.06
2022-09-20T05:53:56.770Z,1000.14
2022-09-20T05:54:56.694Z,1000.12
2022-09-20T05:55:56.631Z,1000.13
2022-09-20T05:56:56.610Z,1000.12
2022-09-20T05:57:56.562Z,1000.13
2022-09-20T05:58:57.249Z,1000.17
2022-09-20T05:59:56.370Z,1000.12
2022-09-20T06:00:56.340Z,1000.13
2022-09-20T06:01:56.293Z,1000.16
2022-09-20T06:02:56.192Z,1000.15
2022-09-20T06:03:56.174Z,1000.16
2022-09-20T06:04:56.050Z,1000.17
2022-09-20T06:05:55.985Z,1000.19
2022-09-20T06:06:55.920Z,1000.18
2022-09-20T06:07:55.856Z,1000.22
2022-09-20T06:08:55.793Z,1000.19
2022-09-20T06:09:55.711Z,1000.24
2022-09-20T06:10:56.448Z,1000.24
2022-09-20T06:11:55.598Z,1000.23
2022-09-20T06:12:55.532Z,1000.25
2022-09-20T06:13:55.468Z,1000.27
2022-09-20T06:14:55.400Z,1000.30
2022-09-20T06:15:55.324Z,1000.29
2022-09-20T06:16:56.048Z,1000.30
2022-09-20T06:17:55.190Z,1000.35
2022-09-20T06:18:55.126Z,1000.36
2022-09-20T06:19:55.075Z,1000.35
2022-09-20T06:20:54.999Z,1000.36
2022-09-20T06:21:54.933Z,1000.39
2022-09-20T06:22:56.398Z,1000.35
2022-09-20T06:23:54.838Z,1000.39
2022-09-20T06:24:54.762Z,1000.34
2022-09-20T06:25:54.711Z,1000.35
2022-09-20T06:26:54.615Z,1000.33
2022-09-20T06:27:54.548Z,1000.37
2022-09-20T06:28:58.251Z,1000.41
2022-09-20T06:29:54.421Z,1000.38
2022-09-20T06:30:54.393Z,1000.39
2022-09-20T06:31:54.284Z,1000.44
2022-09-20T06:32:54.227Z,1000.39
2022-09-20T06:33:54.145Z,1000.37
2022-09-20T06:34:58.104Z,1000.41
2022-09-20T06:35:58.703Z,1000.41
2022-09-20T06:36:53.953Z,1000.37
2022-09-20T06:37:53.904Z,1000.40
2022-09-20T06:38:53.815Z,1000.41
2022-09-20T06:39:53.749Z,1000.41
2022-09-20T06:40:53.706Z,1000.45
2022-09-20T06:41:53.620Z,1000.45
2022-09-20T06:42:53.569Z,1000.47
2022-09-20T06:43:53.491Z,1000.48
2022-09-20T06:44:53.447Z,1000.46
2022-09-20T06:45:53.432Z,1000.45
2022-09-20T06:46:53.324Z,1000.41
2022-09-20T06:47:53.226Z,1000.46
2022-09-20T06:48:53.187Z,1000.48
2022-09-20T06:49:54.020Z,1000.49
2022-09-20T06:50:53.027Z,1000.49
2022-09-20T06:51:52.997Z,1000.51
2022-09-20T06:52:54.452Z,1000.50
2022-09-20T06:53:52.914Z,1000.50
2022-09-20T06:54:52.783Z,1000.50
2022-09-20T06:55:52.729Z,1000.52
2022-09-20T06:56:52.656Z,1000.50
2022-09-20T06:57:52.582Z,1000.52
2022-09-20T06:58:53.315Z,1000.50
2022-09-20T06:59:52.448Z,1000.51
2022-09-20T07:00:52.435Z,1000.50
2022-09-20T07:01:52.376Z,1000.54
2022-09-20T07:02:52.245Z,1000.54
2022-09-20T07:03:52.192Z,1000.58
2022-09-20T07:04:52.144Z,1000.56
2022-09-20T07:05:52.071Z,1000.55
2022-09-20T07:06:51.982Z,1000.55
2022-09-20T07:07:51.932Z,1000.57
2022-09-20T07:08:51.868Z,1000.62
2022-09-20T07:09:51.825Z,1000.63
2022-09-20T07:10:52.515Z,1000.60
2022-09-20T07:11:51.678Z,1000.64
2022-09-20T07:12:51.628Z,1000.67
2022-09-20T07:13:51.553Z,1000.68
2022-09-20T07:14:51.487Z,1000.67
2022-09-20T07:15:51.416Z,1000.66
2022-09-20T07:16:51.419Z,1000.70
2022-09-20T07:17:51.280Z,1000.74
2022-09-20T07:18:51.210Z,1000.77
2022-09-20T07:19:51.177Z,1000.79
2022-09-20T07:20:51.073Z,1000.82
2022-09-20T07:21:51.007Z,1000.83
2022-09-20T07:22:51.011Z,1000.81
2022-09-20T07:23:50.885Z,1000.83
2022-09-20T07:24:50.805Z,1000.83
2022-09-20T07:25:50.783Z,1000.86
2022-09-20T07:26:50.684Z,1000.86
2022-09-20T07:27:50.640Z,1000.84
2022-09-20T07:28:51.336Z,1000.86
2022-09-20T07:29:50.505Z,1000.86
2022-09-20T07:30:50.455Z,1000.84
2022-09-20T07:31:50.399Z,1000.84
2022-09-20T07:32:50.296Z,1000.85
2022-09-20T07:33:50.222Z,1000.87
2022-09-20T07:34:51.701Z,1000.89
2022-09-20T07:35:50.122Z,1000.89
2022-09-20T07:36:50.045Z,1000.89
2022-09-20T07:37:49.975Z,1000.89
2022-09-20T07:38:49.891Z,1000.86
2022-09-20T07:39:49.862Z,1000.86
2022-09-20T07:40:50.861Z,1000.88
2022-09-20T07:41:49.781Z,1000.90
2022-09-20T07:42:53.043Z,1000.86
2022-09-20T07:43:49.613Z,1000.89
2022-09-20T07:44:49.518Z,1000.89
2022-09-20T07:45:49.559Z,1000.90
2022-09-20T07:46:49.402Z,1000.94
2022-09-20T07:47:49.310Z,1000.93
2022-09-20T07:48:49.258Z,1000.92
2022-09-20T07:49:49.193Z,1000.93
2022-09-20T07:50:49.394Z,1000.96
2022-09-20T07:51:49.062Z,1001.00
2022-09-20T07:52:49.011Z,1001.00
2022-09-20T07:53:48.923Z,1000.99
2022-09-20T07:54:48.846Z,1001.01
2022-09-20T07:55:48.797Z,1001.00
2022-09-20T07:56:48.730Z,1001.02
2022-09-20T07:57:48.669Z,1001.05
2022-09-20T07:58:52.406Z,1001.07
2022-09-20T07:59:48.537Z,1001.09
2022-09-20T08:00:48.518Z,1001.10
2022-09-20T08:01:48.413Z,1001.07
2022-09-20T08:02:48.342Z,1001.08
2022-09-20T08:03:48.279Z,1001.06
2022-09-20T08:04:48.211Z,1001.05
2022-09-20T08:05:48.137Z,1001.05
2022-09-20T08:06:48.081Z,1001.07
2022-09-20T08:07:48.021Z,1001.07
2022-09-20T08:08:47.933Z,1001.14
2022-09-20T08:09:47.868Z,1001.15
2022-09-20T08:10:49.031Z,1001.15
2022-09-20T08:11:47.781Z,1001.16
2022-09-20T08:14:47.564Z,1001.21
2022-09-20T08:15:47.485Z,1001.23
2022-09-20T08:16:47.661Z,1001.27
2022-09-20T08:17:47.358Z,1001.23
2022-09-20T08:18:47.313Z,1001.27
2022-09-20T08:19:47.231Z,1001.27
2022-09-20T08:20:47.178Z,1001.25
2022-09-20T08:21:47.091Z,1001.24
2022-09-20T08:23:00.853Z,1001.23
2022-09-20T08:23:47.078Z,1001.24
2022-09-20T08:24:46.888Z,1001.24
2022-09-20T08:25:46.838Z,1001.30
2022-09-20T08:26:46.793Z,1001.27
2022-09-20T08:27:46.734Z,1001.27
2022-09-20T08:28:46.684Z,1001.24
2022-09-20T08:29:46.582Z,1001.29
2022-09-20T08:30:46.511Z,1001.28
2022-09-20T08:31:46.539Z,1001.27
2022-09-20T08:32:46.367Z,1001.25
2022-09-20T08:33:46.324Z,1001.27
2022-09-20T08:34:49.387Z,1001.26
2022-09-20T08:35:46.186Z,1001.24
2022-09-20T08:36:46.132Z,1001.28
2022-09-20T08:37:46.074Z,1001.30
2022-09-20T08:40:03.722Z,1001.29
2022-09-20T08:40:46.785Z,1001.31
2022-09-20T08:41:45.780Z,1001.35
2022-09-20T08:42:45.732Z,1001.36
2022-09-20T08:43:45.908Z,1001.36
2022-09-20T08:44:45.773Z,1001.37
2022-09-20T08:45:46.466Z,1001.35
2022-09-20T08:46:46.964Z,1001.35
2022-09-20T08:47:45.393Z,1001.35
2022-09-20T08:48:45.328Z,1001.34
2022-09-20T08:49:46.579Z,1001.31
2022-09-20T08:50:45.210Z,1001.31
2022-09-20T08:51:48.681Z,1001.33
2022-09-20T08:52:45.090Z,1001.28
2022-09-20T08:53:49.066Z,1001.31
2022-09-20T08:54:44.929Z,1001.34
2022-09-20T08:55:44.890Z,1001.35
2022-09-20T08:56:44.834Z,1001.31
2022-09-20T08:57:44.736Z,1001.33
2022-09-20T08:58:44.688Z,1001.35
2022-09-20T08:59:44.619Z,1001.35
2022-09-20T09:00:44.578Z,1001.32
2022-09-20T09:01:44.492Z,1001.34
2022-09-20T09:02:44.427Z,1001.37
2022-09-20T09:03:44.348Z,1001.35
2022-09-20T09:04:45.857Z,1001.32
2022-09-20T09:05:44.252Z,1001.33
2022-09-20T09:06:50.187Z,1001.36
2022-09-20T09:07:33.606Z,1001.30
2022-09-20T09:08:37.530Z,1001.34
2022-09-20T09:09:37.732Z,1001.31
2022-09-20T09:10:34.410Z,1001.32
2022-09-20T09:11:34.345Z,1001.39
2022-09-20T09:12:34.277Z,1001.33
2022-09-20T09:13:34.224Z,1001.38
2022-09-20T09:14:34.132Z,1001.39
2022-09-20T09:15:34.215Z,1001.40
2022-09-20T09:16:36.057Z,1001.39
2022-09-20T09:17:33.949Z,1001.34
2022-09-20T09:18:33.942Z,1001.36
2022-09-20T09:19:34.267Z,1001.35
2022-09-20T09:20:33.747Z,1001.29
2022-09-20T09:21:33.697Z,1001.31
2022-09-20T09:22:34.832Z,1001.30
2022-09-20T09:23:33.568Z,1001.33
2022-09-20T09:24:33.489Z,1001.26
2022-09-20T09:25:33.485Z,1001.29
2022-09-20T09:26:33.362Z,1001.28
2022-09-20T09:27:33.301Z,1001.23
2022-09-20T09:28:33.248Z,1001.23
2022-09-20T09:29:35.022Z,1001.24
2022-09-20T09:30:33.126Z,1001.25
2022-09-20T09:31:33.128Z,1001.24
2022-09-20T09:32:33.125Z,1001.24
2022-09-20T09:33:32.894Z,1001.24
2022-09-20T09:34:32.867Z,1001.25
2022-09-20T09:35:32.781Z,1001.25
2022-09-20T09:36:32.715Z,1001.24
2022-09-20T09:37:32.660Z,1001.28
2022-09-20T09:38:32.602Z,1001.29
2022-09-20T09:39:32.515Z,1001.26
2022-09-20T09:40:32.570Z,1001.29
2022-09-20T09:41:32.537Z,1001.24
2022-09-20T09:42:32.315Z,1001.28
2022-09-20T09:43:32.244Z,1001.33
2022-09-20T09:44:32.213Z,1001.27
2022-09-20T09:45:32.192Z,1001.25
2022-09-20T09:46:32.109Z,1001.26
2022-09-20T09:47:31.990Z,1001.30
2022-09-20T09:48:31.937Z,1001.26
2022-09-20T09:49:31.854Z,1001.30
2022-09-20T09:50:31.827Z,1001.32
2022-09-20T09:51:31.742Z,1001.31
2022-09-20T09:52:32.492Z,1001.31
2022-09-20T09:53:31.599Z,1001.28
2022-09-20T09:54:31.543Z,1001.32
2022-09-20T09:55:31.480Z,1001.30
2022-09-20T09:56:31.414Z,1001.29
2022-09-20T09:57:31.332Z,1001.29
2022-09-20T09:58:32.059Z,1001.34
2022-09-20T09:59:31.217Z,1001.28
2022-09-20T10:00:31.156Z,1001.32
2022-09-20T10:01:33.358Z,1001.29
2022-09-20T10:02:31.109Z,1001.30
2022-09-20T10:03:30.966Z,1001.26
2022-09-20T10:04:31.682Z,1001.30
2022-09-20T10:05:30.810Z,1001.32
2022-09-20T10:06:30.765Z,1001.32
2022-09-20T10:07:30.702Z,1001.30
2022-09-20T10:08:30.636Z,1001.29
2022-09-20T10:09:30.574Z,1001.29
2022-09-20T10:10:30.522Z,1001.28
2022-09-20T10:11:30.469Z,1001.26
2022-09-20T10:12:30.405Z,1001.24
2022-09-20T10:13:30.295Z,1001.25
2022-09-20T10:14:30.241Z,1001.24
2022-09-20T10:15:30.175Z,1001.14
2022-09-20T10:16:30.200Z,1001.12
2022-09-20T10:17:30.064Z,1001.16
2022-09-20T10:18:29.979Z,1001.22
2022-09-20T10:19:29.917Z,1001.11
2022-09-20T10:20:29.879Z,1001.14
2022-09-20T10:21:29.815Z,1001.17
2022-09-20T10:22:29.741Z,1001.20
2022-09-20T10:23:51.944Z,1001.14
2022-09-20T10:24:30.120Z,1001.17
2022-09-20T10:25:29.518Z,1001.13
2022-09-20T10:26:30.055Z,1001.14
2022-09-20T10:27:29.392Z,1001.11
2022-09-20T10:28:29.383Z,1001.08
2022-09-20T10:29:29.289Z,1001.10
2022-09-20T10:30:29.229Z,1001.08
2022-09-20T10:31:29.217Z,1001.09
2022-09-20T10:32:29.099Z,1001.08
2022-09-20T10:33:29.011Z,1001.08
2022-09-20T10:34:28.970Z,1001.09
2022-09-20T10:35:28.888Z,1001.11
2022-09-20T10:36:28.806Z,1001.08
2022-09-20T10:37:28.753Z,1001.07
2022-09-20T10:38:28.693Z,1001.10
2022-09-20T10:39:28.629Z,1001.10
2022-09-20T10:40:28.588Z,1001.12
2022-09-20T10:41:28.518Z,1001.06
2022-09-20T10:42:28.440Z,1001.12
2022-09-20T10:43:28.377Z,1001.16
2022-09-20T10:44:28.297Z,1001.15
2022-09-20T10:45:53.687Z,1001.14
2022-09-20T10:46:32.980Z,1001.14
2022-09-20T10:47:28.180Z,1001.18
2022-09-20T10:48:28.034Z,1001.12
2022-09-20T10:49:27.973Z,1001.13
2022-09-20T10:50:27.924Z,1001.17
2022-09-20T10:51:27.860Z,1001.16
2022-09-20T10:52:27.773Z,1001.17
2022-09-20T10:53:27.702Z,1001.18
2022-09-20T10:54:27.657Z,1001.20
2022-09-20T10:55:27.580Z,1001.17
2022-09-20T10:56:27.921Z,1001.18
2022-09-20T10:57:27.488Z,1001.15
2022-09-20T10:58:27.695Z,1001.09
2022-09-20T10:59:27.337Z,1001.13
2022-09-20T11:00:27.343Z,1001.10
2022-09-20T11:01:29.237Z,1001.14
2022-09-20T11:02:27.174Z,1001.16
2022-09-20T11:03:27.078Z,1001.17
2022-09-20T11:04:28.538Z,1001.14
2022-09-20T11:05:26.953Z,1001.16
2022-09-20T11:06:27.030Z,1001.18
2022-09-20T11:07:26.818Z,1001.22
2022-09-20T11:08:26.752Z,1001.14
2022-09-20T11:09:26.673Z,1001.16
2022-09-20T11:10:26.648Z,1001.19
2022-09-20T11:11:26.558Z,1001.16
2022-09-20T11:12:26.503Z,1001.18
2022-09-20T11:13:26.428Z,1001.17
2022-09-20T11:14:26.359Z,1001.12
2022-09-20T11:15:26.312Z,1001.14
2022-09-20T11:16:27.812Z,1001.16
2022-09-20T11:17:26.158Z,1001.14
2022-09-20T11:18:26.148Z,1001.19
2022-09-20T11:19:26.048Z,1001.15
2022-09-20T11:20:25.980Z,1001.15
2022-09-20T11:21:25.943Z,1001.18
2022-09-20T11:22:25.854Z,1001.18
2022-09-20T11:23:26.632Z,1001.19
2022-09-20T11:24:25.717Z,1001.17
2022-09-20T11:25:29.452Z,1001.19
2022-09-20T11:26:25.602Z,1001.17
2022-09-20T11:27:25.507Z,1001.12
2022-09-20T11:28:26.283Z,1001.17
2022-09-20T11:29:25.389Z,1001.16
2022-09-20T11:30:25.323Z,1001.14
2022-09-20T11:31:25.327Z,1001.16
2022-09-20T11:32:25.224Z,1001.12
2022-09-20T11:33:25.135Z,1001.21
2022-09-20T11:34:25.102Z,1001.20
2022-09-20T11:35:25.015Z,1001.24
2022-09-20T11:36:24.948Z,1001.21
2022-09-20T11:37:24.883Z,1001.24
2022-09-20T11:38:24.850Z,1001.23
2022-09-20T11:39:24.780Z,1001.26
2022-09-20T11:40:27.011Z,1001.31
2022-09-20T11:41:24.670Z,1001.28
2022-09-20T11:42:24.549Z,1001.32
2022-09-20T11:43:24.487Z,1001.27
2022-09-20T11:44:24.432Z,1001.31
2022-09-20T11:45:28.255Z,1001.26
2022-09-20T11:46:25.126Z,1001.25
2022-09-20T11:47:49.841Z,1001.17
2022-09-20T11:48:24.491Z,1001.14
2022-09-20T11:49:24.298Z,1001.15
2022-09-20T11:50:24.055Z,1001.12
2022-09-20T11:51:24.001Z,1001.14
2022-09-20T11:52:24.326Z,1001.17
2022-09-20T11:53:24.369Z,1001.18
2022-09-20T11:54:23.936Z,1001.21
2022-09-20T11:55:23.817Z,1001.22
2022-09-20T11:56:24.842Z,1001.21
2022-09-20T11:57:23.571Z,1001.22
2022-09-20T11:58:23.560Z,1001.21
2022-09-20T11:59:23.469Z,1001.20
2022-09-20T12:00:23.400Z,1001.17
2022-09-20T12:01:27.937Z,1001.16
2022-09-20T12:02:23.429Z,1001.17
2022-09-20T12:03:23.364Z,1001.16
2022-09-20T12:04:33.266Z,1001.15
2022-09-20T12:05:23.062Z,1001.21
2022-09-20T12:06:22.993Z,1001.20
2022-09-20T12:07:23.051Z,1001.17
2022-09-20T12:08:22.880Z,1001.17
2022-09-20T12:09:22.806Z,1001.18
2022-09-20T12:10:22.772Z,1001.21
2022-09-20T12:11:22.682Z,1001.20
2022-09-20T12:12:22.602Z,1001.19
2022-09-20T12:13:22.586Z,1001.17
2022-09-20T12:14:24.617Z,1001.13
2022-09-20T12:15:23.868Z,1001.12
2022-09-20T12:16:22.424Z,1001.09
2022-09-20T12:17:22.418Z,1001.07
2022-09-20T12:18:22.264Z,1001.13